New Haven, New York
Current Conditions -  °F | °C
As of 10:54 AM on Sunday 21 Dec 2014 (Local Time) from KFZY Reporting Station
Haze Haze  
Wind Chill: 23°   Ceiling: 2300
Heat Index: 30°   Visibility: 5mi
Dew Point: 24°   Wind: 7mph
Humidity: 79%   Direction: 190°S
Pressure: 30.33"   Gusts: NA
Location:  43.48°N, 76.31°W
Report Text: KFZY 211554Z AUTO 19006KT 5SM HZ OVC023 M01/M04 A3033 RMK AO2 SLP277 T10111044
Loading
Personal Weather Stations






























Interactive Weather Map New forecast layout! Learn more

10-Day Weather Forecast

Advertisements
Track Severe Weather on mobile